Airfield :
LOGIN :

Register | Disclaimer

   EN    FR    IT 

 










Legend :    VFR   Marginal VFR   IFR   Intensive IFR   Very Intensive IFR
Visi :
Ceiling :
>= 8 km
>= 3000ft
5 to 8 km
1000 to 3000 ft
1500m to 5 km
500 to 1000 ft
800 to 1500m
200 to 500 ft
< 800m
< 200 ft
Symbols :   Thunderstorms  Fog  Heavy snow  Heavy precipitations  Wind > 20 kt
SIGMETs :     Misc.  Thunderstorms  Icing  Turbulence  Mountain Waves  Volcanic Ashes






- Airport Elevation : 56 ft
- IATA code : ILY


EGPI - Islay

CURRENT METAR :
  • 191550Z 26017KT 9999 FEW024 15/11 Q1009

EXPIRED METARs :
  • 191520Z 25015KT 9999 SCT021 16/12 Q1009
  • 191450Z 24013KT 9999 FEW022 15/13 Q1009
  • 191420Z 25010KT 9999 FEW012 FEW024CB 14/13 Q1008
  • 191350Z 24014KT 9999 -SHRA FEW014 FEW025CB BKN048 14/13 Q1009
  • 191320Z 21028KT 9999 4000W SHRA FEW027CB BKN034 13/10 Q1008

TAF TAF EGPI
Valid from the 19 at 15:00 until the 19 at 18:00 UTC


191357Z 1915/1918 22013KT 9999 FEW020



MET'MAP, your aeronautical weather chart ! - Copyright ORBIFLY December 2007 - Disclaimer

ORBIFLY MET'MAP TEAM :

Programming & Development : Alexandra Zaïnal
Original concept : Baudouin d'Aumeries
Technical & hardware support : Manuel Goepfert
Assistance : Marc-Olivier Méhu




SOURCES & CREDITS :

   NOAA